createdAt,value
2019-02-12T00:01:16.335Z,93.20
2019-02-12T00:03:43.970Z,92.80
2019-02-12T00:06:13.281Z,92.50
2019-02-12T00:08:40.673Z,92.60
2019-02-12T00:11:09.105Z,92.10
2019-02-12T00:13:36.627Z,92.60
2019-02-12T00:16:03.998Z,92.40
2019-02-12T00:18:31.553Z,92.60
2019-02-12T00:20:59.017Z,92.80
2019-02-12T00:23:26.504Z,92.60
2019-02-12T00:25:53.989Z,92.70
2019-02-12T00:28:21.484Z,92.30
2019-02-12T00:30:49.031Z,92.50
2019-02-12T00:33:18.556Z,92.30
2019-02-12T00:35:46.038Z,92.40
2019-02-12T00:38:13.689Z,92.20
2019-02-12T00:40:42.461Z,92.30
2019-02-12T00:43:11.554Z,92.20
2019-02-12T00:45:39.348Z,92.10
2019-02-12T00:48:06.831Z,92.20
2019-02-12T00:50:34.342Z,92.10
2019-02-12T00:53:02.059Z,92.20
2019-02-12T00:55:29.585Z,92.20
2019-02-12T00:57:57.205Z,92.50
2019-02-12T01:00:24.960Z,92.60
2019-02-12T01:02:52.459Z,92.70
2019-02-12T01:05:19.956Z,93.00
2019-02-12T01:07:48.507Z,93.10
2019-02-12T01:10:16.017Z,92.90
2019-02-12T01:12:43.523Z,93.00
2019-02-12T01:15:12.152Z,92.80
2019-02-12T01:17:39.684Z,92.90
2019-02-12T01:20:09.311Z,93.00
2019-02-12T01:22:36.840Z,93.20
2019-02-12T01:25:05.291Z,93.30
2019-02-12T01:27:32.624Z,93.00
2019-02-12T01:30:00.232Z,92.90
2019-02-12T01:32:27.808Z,92.70
2019-02-12T01:34:55.316Z,92.50
2019-02-12T01:37:23.171Z,92.40
2019-02-12T01:39:51.232Z,92.30
2019-02-12T01:42:18.739Z,92.40
2019-02-12T01:44:46.434Z,92.30
2019-02-12T01:47:14.208Z,92.00
2019-02-12T01:49:41.689Z,92.10
2019-02-12T01:52:09.051Z,91.90
2019-02-12T01:54:36.682Z,91.80
2019-02-12T01:57:04.185Z,91.90
2019-02-12T01:59:31.560Z,91.70
2019-02-12T02:01:59.024Z,91.90
2019-02-12T02:04:26.388Z,91.60
2019-02-12T02:06:53.880Z,91.70
2019-02-12T02:09:21.339Z,91.90
2019-02-12T02:11:49.083Z,91.70
2019-02-12T02:14:16.559Z,91.70
2019-02-12T02:16:44.543Z,91.80
2019-02-12T02:19:12.383Z,91.60
2019-02-12T02:21:44.167Z,91.70
2019-02-12T02:24:09.641Z,91.70
2019-02-12T02:26:37.291Z,91.70
2019-02-12T02:29:04.891Z,91.50
2019-02-12T02:31:32.459Z,91.80
2019-02-12T02:33:59.963Z,91.40
2019-02-12T02:36:27.429Z,91.70
2019-02-12T02:38:55.034Z,91.50
2019-02-12T02:41:22.519Z,91.40
2019-02-12T02:43:49.952Z,91.20
2019-02-12T02:46:17.521Z,91.30
2019-02-12T02:48:45.013Z,91.70
2019-02-12T02:51:12.621Z,91.50
2019-02-12T02:53:40.106Z,91.40
2019-02-12T02:56:07.588Z,91.50
2019-02-12T02:58:37.060Z,91.40
2019-02-12T03:01:04.635Z,91.30
2019-02-12T03:03:32.221Z,91.60
2019-02-12T03:05:59.983Z,91.70
2019-02-12T03:08:27.496Z,91.40
2019-02-12T03:10:54.988Z,91.80
2019-02-12T03:13:22.520Z,91.50
2019-02-12T03:15:49.988Z,91.80
2019-02-12T03:18:17.448Z,91.50
2019-02-12T03:20:46.904Z,91.80
2019-02-12T03:23:14.344Z,91.50
2019-02-12T03:25:41.848Z,91.80
2019-02-12T03:28:09.708Z,91.60
2019-02-12T03:30:37.087Z,91.80
2019-02-12T03:33:04.789Z,91.80
2019-02-12T03:35:32.487Z,92.00
2019-02-12T03:37:59.947Z,91.80
2019-02-12T03:40:27.460Z,91.60
2019-02-12T03:42:54.980Z,92.00
2019-02-12T03:45:22.775Z,92.20
2019-02-12T03:47:50.296Z,91.70
2019-02-12T03:50:17.764Z,91.90
2019-02-12T03:52:45.239Z,91.80
2019-02-12T03:55:12.790Z,91.90
2019-02-12T03:57:40.666Z,92.20
2019-02-12T04:00:11.110Z,91.90
2019-02-12T04:02:57.900Z,92.30
2019-02-12T04:05:25.528Z,92.10
2019-02-12T04:07:53.018Z,92.30
2019-02-12T04:10:20.512Z,92.40
2019-02-12T04:12:48.020Z,92.20
2019-02-12T04:15:15.539Z,92.20
2019-02-12T04:17:43.034Z,92.30
2019-02-12T04:20:10.623Z,92.20
2019-02-12T04:22:38.063Z,92.20
2019-02-12T04:25:05.689Z,92.40
2019-02-12T04:27:33.262Z,92.50
2019-02-12T04:30:00.759Z,92.70
2019-02-12T04:32:28.254Z,92.30
2019-02-12T04:34:55.698Z,92.50
2019-02-12T04:37:23.165Z,92.30
2019-02-12T04:39:50.683Z,92.30
2019-02-12T04:42:18.031Z,92.50
2019-02-12T04:44:45.936Z,92.30
2019-02-12T04:47:13.458Z,92.20
2019-02-12T04:49:40.949Z,92.50
2019-02-12T04:52:08.508Z,92.50
2019-02-12T04:54:36.356Z,92.70
2019-02-12T04:57:03.896Z,92.40
2019-02-12T04:59:31.620Z,92.50
2019-02-12T05:01:59.194Z,92.50
2019-02-12T05:04:26.900Z,92.70
2019-02-12T05:06:54.415Z,92.40
2019-02-12T05:09:22.144Z,92.50
2019-02-12T05:11:58.049Z,92.20
2019-02-12T05:14:25.533Z,92.50
2019-02-12T05:16:53.305Z,92.30
2019-02-12T05:19:20.785Z,92.40
2019-02-12T05:21:48.305Z,92.70
2019-02-12T05:24:16.075Z,92.20
2019-02-12T05:26:43.623Z,92.10
2019-02-12T05:29:11.145Z,92.20
2019-02-12T05:31:38.604Z,91.90
2019-02-12T05:34:06.088Z,91.50
2019-02-12T05:36:33.619Z,91.30
2019-02-12T05:39:01.217Z,91.20
2019-02-12T05:41:29.975Z,91.50
2019-02-12T05:43:58.368Z,91.30
2019-02-12T05:46:25.875Z,90.80
2019-02-12T05:48:53.356Z,90.90
2019-02-12T05:51:21.166Z,90.80
2019-02-12T05:53:48.702Z,91.00
2019-02-12T05:56:16.050Z,91.20
2019-02-12T05:58:43.540Z,91.50
2019-02-12T06:01:10.979Z,91.50
2019-02-12T06:03:38.489Z,91.90
2019-02-12T06:06:05.951Z,92.00
2019-02-12T06:08:33.276Z,91.80
2019-02-12T06:11:00.623Z,91.00
2019-02-12T06:13:28.135Z,91.30
2019-02-12T06:15:55.511Z,91.40
2019-02-12T06:18:22.981Z,90.90
2019-02-12T06:20:50.473Z,90.60
2019-02-12T06:23:17.948Z,90.40
2019-02-12T06:25:45.464Z,90.50
2019-02-12T06:28:12.945Z,90.70
2019-02-12T06:30:40.563Z,90.80
2019-02-12T06:33:08.218Z,91.30
2019-02-12T06:35:35.536Z,91.20
2019-02-12T06:38:03.055Z,90.80
2019-02-12T06:40:30.403Z,90.10
2019-02-12T06:42:58.030Z,89.70
2019-02-12T06:45:25.484Z,89.50
2019-02-12T06:47:52.930Z,90.10
2019-02-12T06:50:20.476Z,89.50
2019-02-12T06:52:48.056Z,89.40
2019-02-12T06:55:15.489Z,89.50
2019-02-12T06:57:42.872Z,89.00
2019-02-12T07:00:10.403Z,89.10
2019-02-12T07:03:15.841Z,89.60
2019-02-12T07:06:07.811Z,90.00
2019-02-12T07:08:51.933Z,89.40
2019-02-12T07:11:50.924Z,89.50
2019-02-12T07:14:54.692Z,89.10
2019-02-12T07:17:48.959Z,89.10
2019-02-12T07:20:46.131Z,89.10
2019-02-12T07:23:57.889Z,89.40
2019-02-12T07:27:07.044Z,90.20
2019-02-12T07:30:28.608Z,90.00
2019-02-12T07:34:02.518Z,90.00
2019-02-12T07:36:59.539Z,90.30
2019-02-12T07:39:57.403Z,90.60
2019-02-12T07:42:55.358Z,90.20
2019-02-12T07:45:56.319Z,89.50
2019-02-12T07:49:01.571Z,89.00
2019-02-12T07:52:01.275Z,88.90
2019-02-12T07:54:44.333Z,88.40
2019-02-12T07:58:01.834Z,88.50
2019-02-12T08:01:07.798Z,87.80
2019-02-12T08:04:26.146Z,87.50
2019-02-12T08:07:12.021Z,87.70
2019-02-12T08:10:30.322Z,87.40
2019-02-12T08:13:45.578Z,86.60
2019-02-12T08:16:46.184Z,86.70
2019-02-12T08:20:10.753Z,86.30
2019-02-12T08:23:23.780Z,86.50
2019-02-12T08:26:17.905Z,86.00
2019-02-12T08:29:13.572Z,86.10
2019-02-12T08:31:52.547Z,85.50
2019-02-12T08:34:50.596Z,85.30
2019-02-12T08:37:36.529Z,85.10
2019-02-12T08:40:44.657Z,85.50
2019-02-12T08:43:38.405Z,85.60
2019-02-12T08:46:24.771Z,85.10
2019-02-12T08:49:37.036Z,84.70
2019-02-12T08:52:46.512Z,84.80
2019-02-12T08:55:46.152Z,85.20
2019-02-12T08:58:38.177Z,84.40
2019-02-12T09:01:45.812Z,83.70
2019-02-12T09:04:38.319Z,83.50
2019-02-12T09:07:56.887Z,84.00
2019-02-12T09:11:01.873Z,82.80
2019-02-12T09:13:47.077Z,82.80
2019-02-12T09:17:20.576Z,82.60
2019-02-12T09:20:29.932Z,82.40
2019-02-12T09:23:47.375Z,81.80
2019-02-12T09:26:57.512Z,81.60
2019-02-12T09:30:02.428Z,81.40
2019-02-12T09:33:13.826Z,81.10
2019-02-12T09:36:32.430Z,81.40
2019-02-12T09:39:37.481Z,79.90
2019-02-12T09:42:26.791Z,80.40
2019-02-12T09:45:25.806Z,80.10
2019-02-12T09:48:24.528Z,79.90
2019-02-12T09:51:05.650Z,79.50
2019-02-12T09:53:57.506Z,78.40
2019-02-12T09:57:00.793Z,78.20
2019-02-12T10:00:08.209Z,78.00
2019-02-12T10:03:26.832Z,77.40
2019-02-12T10:06:35.197Z,77.60
2019-02-12T10:09:37.415Z,77.60
2019-02-12T10:12:27.563Z,75.40
2019-02-12T10:15:24.646Z,75.10
2019-02-12T10:18:49.639Z,76.40
2019-02-12T10:22:07.163Z,74.40
2019-02-12T10:25:11.788Z,72.70
2019-02-12T10:28:13.533Z,73.40
2019-02-12T10:31:06.554Z,74.80
2019-02-12T10:33:35.281Z,75.40
2019-02-12T10:36:02.965Z,74.60
2019-02-12T10:38:30.388Z,74.00
2019-02-12T10:40:57.959Z,73.20
2019-02-12T10:43:25.476Z,73.20
2019-02-12T10:45:53.093Z,72.90
2019-02-12T10:48:20.529Z,73.60
2019-02-12T10:50:48.078Z,73.80
2019-02-12T10:53:15.561Z,75.10
2019-02-12T10:55:43.178Z,74.30
2019-02-12T10:58:10.650Z,74.80
2019-02-12T11:00:38.266Z,73.20
2019-02-12T11:03:06.258Z,73.10
2019-02-12T11:05:33.764Z,71.50
2019-02-12T11:08:01.223Z,71.60
2019-02-12T11:10:29.938Z,71.70
2019-02-12T11:12:57.420Z,71.40
2019-02-12T11:15:24.926Z,70.70
2019-02-12T11:17:52.380Z,71.00
2019-02-12T11:20:19.853Z,71.40
2019-02-12T11:22:47.567Z,71.60
2019-02-12T11:25:15.535Z,69.70
2019-02-12T11:27:43.041Z,69.80
2019-02-12T11:30:10.483Z,70.40
2019-02-12T11:32:38.012Z,69.80
2019-02-12T11:35:06.023Z,69.00
2019-02-12T11:37:34.579Z,69.00
2019-02-12T11:40:02.046Z,69.90
2019-02-12T11:42:30.195Z,69.60
2019-02-12T11:44:57.703Z,69.60
2019-02-12T11:47:25.160Z,70.10
2019-02-12T11:49:52.790Z,69.80
2019-02-12T11:52:20.589Z,69.60
2019-02-12T11:54:48.192Z,68.90
2019-02-12T11:57:15.969Z,69.80
2019-02-12T11:59:43.526Z,69.40
2019-02-12T12:02:11.009Z,68.90
2019-02-12T12:04:38.564Z,69.80
2019-02-12T12:07:06.164Z,69.30
2019-02-12T12:09:33.658Z,69.60
2019-02-12T12:12:01.193Z,70.40
2019-02-12T12:14:28.691Z,70.30
2019-02-12T12:16:56.097Z,70.10
2019-02-12T12:19:23.582Z,69.90
2019-02-12T12:21:51.401Z,69.10
2019-02-12T12:24:19.029Z,68.60
2019-02-12T12:26:46.877Z,68.90
2019-02-12T12:29:14.371Z,69.40
2019-02-12T12:31:41.883Z,67.50
2019-02-12T12:34:09.690Z,68.40
2019-02-12T12:36:37.146Z,68.70
2019-02-12T12:39:05.368Z,69.20
2019-02-12T12:41:34.792Z,70.30
2019-02-12T12:44:02.672Z,69.50
2019-02-12T12:46:30.879Z,70.00
2019-02-12T12:48:59.292Z,70.20
2019-02-12T12:51:27.872Z,70.50
2019-02-12T12:53:55.329Z,70.40
2019-02-12T12:56:22.787Z,69.10
2019-02-12T12:58:50.347Z,70.00
2019-02-12T13:01:17.788Z,69.50
2019-02-12T13:03:45.239Z,70.00
2019-02-12T13:06:12.796Z,69.50
2019-02-12T13:08:40.299Z,69.50
2019-02-12T13:11:07.789Z,69.70
2019-02-12T13:13:35.282Z,70.00
2019-02-12T13:16:03.082Z,68.80
2019-02-12T13:18:30.831Z,68.40
2019-02-12T13:20:58.515Z,68.10
2019-02-12T13:23:26.025Z,68.70
2019-02-12T13:25:53.468Z,68.90
2019-02-12T13:28:20.940Z,68.40
2019-02-12T13:30:48.540Z,68.30
2019-02-12T13:33:16.032Z,67.80
2019-02-12T13:35:43.521Z,67.40
2019-02-12T13:38:11.055Z,67.80
2019-02-12T13:40:38.901Z,68.90
2019-02-12T13:43:06.595Z,68.00
2019-02-12T13:45:34.087Z,67.50
2019-02-12T13:48:03.457Z,68.30
2019-02-12T13:50:31.591Z,67.90
2019-02-12T13:52:59.481Z,67.60
2019-02-12T13:55:27.026Z,68.30
2019-02-12T13:57:54.605Z,67.90
2019-02-12T14:00:22.366Z,68.00
2019-02-12T14:02:49.883Z,68.40
2019-02-12T14:05:17.642Z,67.60
2019-02-12T14:07:45.259Z,67.90
2019-02-12T14:10:13.309Z,66.80
2019-02-12T14:12:41.955Z,66.80
2019-02-12T14:15:10.582Z,66.80
2019-02-12T14:17:38.539Z,66.30
2019-02-12T14:20:08.264Z,66.40
2019-02-12T14:22:35.919Z,66.60
2019-02-12T14:25:04.297Z,66.50
2019-02-12T14:27:32.936Z,66.10
2019-02-12T14:30:00.454Z,66.60
2019-02-12T14:32:27.941Z,66.30
2019-02-12T14:34:55.419Z,66.50
2019-02-12T14:37:22.971Z,67.30
2019-02-12T14:39:50.520Z,67.10
2019-02-12T14:42:18.298Z,66.90
2019-02-12T14:44:45.830Z,67.00
2019-02-12T14:47:13.320Z,67.00
2019-02-12T14:49:40.760Z,66.20
2019-02-12T14:52:08.276Z,66.20
2019-02-12T14:54:35.748Z,66.60
2019-02-12T14:57:03.127Z,67.00
2019-02-12T14:59:31.357Z,67.20
2019-02-12T15:01:58.890Z,67.20
2019-02-12T15:04:26.359Z,67.50
2019-02-12T15:06:53.876Z,67.70
2019-02-12T15:09:22.474Z,67.70
2019-02-12T15:11:50.314Z,67.80
2019-02-12T15:14:18.256Z,67.90
2019-02-12T15:16:45.723Z,67.90
2019-02-12T15:19:13.281Z,68.50
2019-02-12T15:21:40.875Z,68.10
2019-02-12T15:24:08.491Z,68.40
2019-02-12T15:26:35.987Z,68.90
2019-02-12T15:29:03.494Z,69.10
2019-02-12T15:31:31.122Z,68.50
2019-02-12T15:33:58.604Z,68.80
2019-02-12T15:36:26.098Z,68.70
2019-02-12T15:46:21.107Z,68.50
2019-02-12T15:48:48.507Z,68.80
2019-02-12T15:51:15.962Z,68.90
2019-02-12T15:53:43.896Z,68.70
2019-02-12T15:56:11.353Z,69.20
2019-02-12T15:58:38.943Z,68.80
2019-02-12T16:01:06.494Z,69.10
2019-02-12T16:03:37.724Z,69.20
2019-02-12T16:06:05.742Z,69.50
2019-02-12T16:08:33.159Z,69.90
2019-02-12T16:11:00.670Z,70.40
2019-02-12T16:13:28.277Z,70.60
2019-02-12T16:15:55.770Z,70.40
2019-02-12T16:18:24.817Z,70.60
2019-02-12T16:20:52.943Z,70.90
2019-02-12T16:23:21.766Z,70.90
2019-02-12T16:25:49.518Z,71.50
2019-02-12T16:28:16.988Z,71.10
2019-02-12T16:30:44.469Z,71.80
2019-02-12T16:33:11.975Z,72.80
2019-02-12T16:35:39.816Z,72.00
2019-02-12T16:38:07.222Z,71.80
2019-02-12T16:40:34.647Z,72.30
2019-02-12T16:43:02.019Z,72.40
2019-02-12T16:45:43.130Z,72.80
2019-02-12T16:48:10.606Z,72.70
2019-02-12T16:50:39.171Z,72.70
2019-02-12T16:53:06.751Z,72.30
2019-02-12T16:55:34.265Z,72.50
2019-02-12T16:58:01.785Z,73.00
2019-02-12T17:00:29.328Z,72.30
2019-02-12T17:02:57.039Z,72.30
2019-02-12T17:05:24.649Z,73.10
2019-02-12T17:07:52.228Z,73.00
2019-02-12T17:10:20.149Z,74.20
2019-02-12T17:12:47.607Z,73.90
2019-02-12T17:15:15.266Z,75.00
2019-02-12T17:17:42.990Z,76.20
2019-02-12T17:20:13.257Z,75.60
2019-02-12T17:22:42.533Z,75.70
2019-02-12T17:25:10.118Z,76.60
2019-02-12T17:27:38.541Z,76.20
2019-02-12T17:30:07.901Z,76.50
2019-02-12T17:32:35.516Z,76.90
2019-02-12T17:35:02.994Z,77.30
2019-02-12T17:37:31.690Z,77.50
2019-02-12T17:39:59.143Z,78.30
2019-02-12T17:42:26.809Z,77.40
2019-02-12T17:44:54.281Z,76.70
2019-02-12T17:47:21.773Z,77.20
2019-02-12T17:49:50.312Z,77.50
2019-02-12T17:52:17.769Z,77.30
2019-02-12T17:54:45.407Z,77.80
2019-02-12T17:57:12.849Z,78.10
2019-02-12T17:59:40.340Z,78.00
2019-02-12T18:02:08.326Z,78.00
2019-02-12T18:04:35.775Z,78.10
2019-02-12T18:07:03.291Z,78.50
2019-02-12T18:09:30.739Z,77.90
2019-02-12T18:11:58.216Z,77.90
2019-02-12T18:14:25.664Z,78.30
2019-02-12T18:16:53.081Z,78.60
2019-02-12T18:19:20.454Z,78.10
2019-02-12T18:21:47.805Z,78.70
2019-02-12T18:24:15.392Z,78.40
2019-02-12T18:26:43.614Z,78.40
2019-02-12T18:29:11.124Z,78.60
2019-02-12T18:31:38.826Z,79.10
2019-02-12T18:34:06.350Z,79.30
2019-02-12T18:36:33.799Z,79.10
2019-02-12T18:39:01.305Z,79.50
2019-02-12T18:41:30.642Z,79.10
2019-02-12T18:43:57.985Z,79.20
2019-02-12T18:46:25.473Z,79.60
2019-02-12T18:48:52.967Z,80.40
2019-02-12T18:51:20.520Z,80.60
2019-02-12T18:53:48.112Z,80.20
2019-02-12T18:56:15.578Z,80.50
2019-02-12T18:58:43.280Z,80.50
2019-02-12T19:01:10.730Z,80.30
2019-02-12T19:03:38.408Z,80.30
2019-02-12T19:06:06.134Z,80.60
2019-02-12T19:08:33.719Z,81.40
2019-02-12T19:11:01.446Z,81.50
2019-02-12T19:13:29.128Z,81.50
2019-02-12T19:15:56.674Z,81.60
2019-02-12T19:18:25.698Z,81.70
2019-02-12T19:20:53.133Z,81.80
2019-02-12T19:23:20.684Z,81.90
2019-02-12T19:25:48.136Z,82.00
2019-02-12T19:28:15.568Z,82.00
2019-02-12T19:30:43.031Z,81.90
2019-02-12T19:33:10.477Z,81.70
2019-02-12T19:35:37.961Z,82.00
2019-02-12T19:38:05.371Z,82.50
2019-02-12T19:40:34.155Z,82.50
2019-02-12T19:43:01.757Z,83.00
2019-02-12T19:45:29.905Z,82.70
2019-02-12T19:47:57.378Z,82.50
2019-02-12T19:50:24.834Z,82.70
2019-02-12T19:52:52.381Z,82.80
2019-02-12T19:55:20.279Z,83.10
2019-02-12T19:57:47.795Z,82.90
2019-02-12T20:00:18.665Z,83.40
2019-02-12T20:02:46.154Z,83.40
2019-02-12T20:05:13.622Z,83.50
2019-02-12T20:07:41.154Z,83.80
2019-02-12T20:10:08.651Z,84.10
2019-02-12T20:12:36.176Z,84.80
2019-02-12T20:15:04.575Z,85.00
2019-02-12T20:17:32.192Z,84.60
2019-02-12T20:19:59.806Z,84.30
2019-02-12T20:22:27.211Z,84.60
2019-02-12T20:24:54.897Z,84.40
2019-02-12T20:27:22.396Z,84.20
2019-02-12T20:29:50.014Z,84.10
2019-02-12T20:32:17.492Z,84.10
2019-02-12T20:34:45.004Z,83.80
2019-02-12T20:37:12.710Z,84.40
2019-02-12T20:39:40.338Z,84.50
2019-02-12T20:42:07.843Z,84.50
2019-02-12T20:44:35.345Z,84.40
2019-02-12T20:47:04.004Z,84.70
2019-02-12T20:49:31.628Z,84.70
2019-02-12T20:51:59.154Z,84.70
2019-02-12T20:54:26.663Z,84.90
2019-02-12T20:56:54.559Z,84.80
2019-02-12T20:59:22.386Z,84.80
2019-02-12T21:01:49.917Z,84.90
2019-02-12T21:04:17.407Z,84.70
2019-02-12T21:06:45.039Z,84.40
2019-02-12T21:09:12.794Z,84.50
2019-02-12T21:11:40.589Z,84.30
2019-02-12T21:14:08.056Z,84.40
2019-02-12T21:16:35.515Z,84.80
2019-02-12T21:19:02.995Z,85.00
2019-02-12T21:21:30.455Z,85.10
2019-02-12T21:23:58.050Z,85.00
2019-02-12T21:26:25.544Z,85.10
2019-02-12T21:28:53.002Z,85.10
2019-02-12T21:31:20.337Z,85.00
2019-02-12T21:33:47.834Z,85.00
2019-02-12T21:36:15.395Z,85.10
2019-02-12T21:38:43.325Z,85.60
2019-02-12T21:41:11.908Z,85.40
2019-02-12T21:43:39.348Z,85.40
2019-02-12T21:46:06.843Z,85.20
2019-02-12T21:48:34.482Z,85.30
2019-02-12T21:51:01.987Z,85.90
2019-02-12T21:53:30.111Z,85.70
2019-02-12T21:55:57.819Z,85.80
2019-02-12T21:58:25.652Z,85.80
2019-02-12T22:00:53.172Z,85.70
2019-02-12T22:03:21.401Z,85.90
2019-02-12T22:05:48.978Z,86.10
2019-02-12T22:08:16.436Z,85.80
2019-02-12T22:10:46.336Z,85.80
2019-02-12T22:13:13.201Z,86.10
2019-02-12T22:15:40.665Z,86.60
2019-02-12T22:18:08.020Z,86.40
2019-02-12T22:20:35.930Z,86.10
2019-02-12T22:23:03.643Z,86.20
2019-02-12T22:25:31.517Z,86.30
2019-02-12T22:28:00.164Z,86.50
2019-02-12T22:30:28.596Z,87.00
2019-02-12T22:32:56.201Z,86.90
2019-02-12T22:35:23.653Z,86.90
2019-02-12T22:37:51.158Z,87.00
2019-02-12T22:40:18.637Z,87.00
2019-02-12T22:42:46.132Z,87.10
2019-02-12T22:45:15.365Z,86.90
2019-02-12T22:47:45.270Z,87.00
2019-02-12T22:50:13.156Z,87.00
2019-02-12T22:52:40.672Z,86.70
2019-02-12T22:55:08.182Z,87.00
2019-02-12T22:57:35.629Z,87.00
2019-02-12T23:00:10.187Z,87.10
2019-02-12T23:02:39.208Z,87.00
2019-02-12T23:05:06.850Z,87.10
2019-02-12T23:07:34.455Z,87.30
2019-02-12T23:10:02.048Z,87.10
2019-02-12T23:12:31.787Z,87.00
2019-02-12T23:14:59.469Z,87.10
2019-02-12T23:17:26.928Z,87.10
2019-02-12T23:19:54.379Z,87.30
2019-02-12T23:22:21.832Z,87.30
2019-02-12T23:24:49.291Z,87.60
2019-02-12T23:27:17.296Z,87.60
2019-02-12T23:29:44.798Z,87.50
2019-02-12T23:32:12.318Z,87.80
2019-02-12T23:34:39.893Z,87.80
2019-02-12T23:37:08.631Z,87.80
2019-02-12T23:39:37.808Z,87.90
2019-02-12T23:42:05.676Z,87.70
2019-02-12T23:44:33.184Z,87.70
2019-02-12T23:47:00.674Z,88.00
2019-02-12T23:49:28.166Z,88.20
2019-02-12T23:51:56.521Z,88.20
2019-02-12T23:54:24.340Z,88.30
2019-02-12T23:56:51.800Z,88.20
2019-02-12T23:59:19.282Z,88.30
